sensor_id;sensor_type;location;lat;lon;timestamp;temperature;humidity
1614;DHT22;800;48.824;9.346;2023-08-07T00:02:04;16.30;69.00
1614;DHT22;800;48.824;9.346;2023-08-07T00:04:29;16.20;69.60
1614;DHT22;800;48.824;9.346;2023-08-07T00:06:55;16.20;69.70
1614;DHT22;800;48.824;9.346;2023-08-07T00:09:21;16.20;69.30
1614;DHT22;800;48.824;9.346;2023-08-07T00:11:46;16.30;69.50
1614;DHT22;800;48.824;9.346;2023-08-07T00:14:12;16.30;68.40
1614;DHT22;800;48.824;9.346;2023-08-07T00:16:37;16.10;68.60
1614;DHT22;800;48.824;9.346;2023-08-07T00:19:03;16.20;68.90
1614;DHT22;800;48.824;9.346;2023-08-07T00:21:29;16.00;68.50
1614;DHT22;800;48.824;9.346;2023-08-07T00:23:54;16.20;69.10
1614;DHT22;800;48.824;9.346;2023-08-07T00:26:20;16.30;68.80
1614;DHT22;800;48.824;9.346;2023-08-07T00:28:46;16.40;67.40
1614;DHT22;800;48.824;9.346;2023-08-07T00:31:12;16.20;68.70
1614;DHT22;800;48.824;9.346;2023-08-07T00:33:38;16.30;68.20
1614;DHT22;800;48.824;9.346;2023-08-07T00:36:03;16.20;68.00
1614;DHT22;800;48.824;9.346;2023-08-07T00:38:29;16.10;68.10
1614;DHT22;800;48.824;9.346;2023-08-07T00:40:55;16.20;68.30
1614;DHT22;800;48.824;9.346;2023-08-07T00:43:20;16.20;68.10
1614;DHT22;800;48.824;9.346;2023-08-07T00:45:47;16.50;67.70
1614;DHT22;800;48.824;9.346;2023-08-07T00:48:13;16.60;66.80
1614;DHT22;800;48.824;9.346;2023-08-07T00:50:42;16.60;66.50
1614;DHT22;800;48.824;9.346;2023-08-07T00:53:08;16.60;66.50
1614;DHT22;800;48.824;9.346;2023-08-07T00:55:34;16.30;66.00
1614;DHT22;800;48.824;9.346;2023-08-07T00:58:00;16.50;66.60
1614;DHT22;800;48.824;9.346;2023-08-07T01:00:28;16.30;65.60
1614;DHT22;800;48.824;9.346;2023-08-07T01:02:55;16.20;67.20
1614;DHT22;800;48.824;9.346;2023-08-07T01:05:21;16.20;67.10
1614;DHT22;800;48.824;9.346;2023-08-07T01:07:47;16.30;66.60
1614;DHT22;800;48.824;9.346;2023-08-07T01:10:13;16.40;65.90
1614;DHT22;800;48.824;9.346;2023-08-07T01:12:48;16.30;65.40
1614;DHT22;800;48.824;9.346;2023-08-07T01:15:22;16.10;65.00
1614;DHT22;800;48.824;9.346;2023-08-07T01:17:50;16.20;65.30
1614;DHT22;800;48.824;9.346;2023-08-07T01:20:17;16.20;64.90
1614;DHT22;800;48.824;9.346;2023-08-07T01:22:43;16.20;64.40
1614;DHT22;800;48.824;9.346;2023-08-07T01:25:09;16.00;65.00
1614;DHT22;800;48.824;9.346;2023-08-07T01:30:40;16.00;65.50
1614;DHT22;800;48.824;9.346;2023-08-07T01:33:16;16.20;65.50
1614;DHT22;800;48.824;9.346;2023-08-07T01:35:54;16.30;65.00
1614;DHT22;800;48.824;9.346;2023-08-07T01:38:24;16.30;64.90
1614;DHT22;800;48.824;9.346;2023-08-07T01:40:51;16.30;64.60
1614;DHT22;800;48.824;9.346;2023-08-07T01:43:18;16.40;64.10
1614;DHT22;800;48.824;9.346;2023-08-07T01:45:44;16.50;63.70
1614;DHT22;800;48.824;9.346;2023-08-07T01:48:10;16.40;63.10
1614;DHT22;800;48.824;9.346;2023-08-07T01:50:37;16.50;62.70
1614;DHT22;800;48.824;9.346;2023-08-07T01:53:03;16.50;62.90
1614;DHT22;800;48.824;9.346;2023-08-07T01:55:29;16.40;63.10
1614;DHT22;800;48.824;9.346;2023-08-07T01:57:54;16.40;63.00
1614;DHT22;800;48.824;9.346;2023-08-07T02:00:20;16.30;62.60
1614;DHT22;800;48.824;9.346;2023-08-07T02:02:46;16.20;62.70
1614;DHT22;800;48.824;9.346;2023-08-07T02:05:13;16.20;62.90
1614;DHT22;800;48.824;9.346;2023-08-07T02:07:38;16.30;62.60
1614;DHT22;800;48.824;9.346;2023-08-07T02:10:04;16.10;62.50
1614;DHT22;800;48.824;9.346;2023-08-07T02:12:30;15.90;62.50
1614;DHT22;800;48.824;9.346;2023-08-07T02:14:58;16.10;62.90
1614;DHT22;800;48.824;9.346;2023-08-07T02:17:25;16.20;62.60
1614;DHT22;800;48.824;9.346;2023-08-07T02:19:51;16.10;62.00
1614;DHT22;800;48.824;9.346;2023-08-07T02:22:16;16.00;62.00
1614;DHT22;800;48.824;9.346;2023-08-07T02:24:42;16.00;62.30
1614;DHT22;800;48.824;9.346;2023-08-07T02:27:07;16.00;62.50
1614;DHT22;800;48.824;9.346;2023-08-07T02:29:33;16.10;62.00
1614;DHT22;800;48.824;9.346;2023-08-07T02:32:02;16.00;61.70
1614;DHT22;800;48.824;9.346;2023-08-07T02:34:29;16.10;61.90
1614;DHT22;800;48.824;9.346;2023-08-07T02:36:54;16.00;61.90
1614;DHT22;800;48.824;9.346;2023-08-07T02:39:20;16.00;62.70
1614;DHT22;800;48.824;9.346;2023-08-07T02:41:46;15.90;63.40
1614;DHT22;800;48.824;9.346;2023-08-07T02:44:11;15.70;63.60
1614;DHT22;800;48.824;9.346;2023-08-07T02:46:37;15.60;64.20
1614;DHT22;800;48.824;9.346;2023-08-07T02:49:02;15.80;64.50
1614;DHT22;800;48.824;9.346;2023-08-07T02:51:28;15.80;63.30
1614;DHT22;800;48.824;9.346;2023-08-07T02:53:54;15.80;63.10
1614;DHT22;800;48.824;9.346;2023-08-07T02:56:19;15.80;63.40
1614;DHT22;800;48.824;9.346;2023-08-07T02:58:45;15.80;63.10
1614;DHT22;800;48.824;9.346;2023-08-07T03:01:10;16.00;63.00
1614;DHT22;800;48.824;9.346;2023-08-07T03:03:37;16.20;62.20
1614;DHT22;800;48.824;9.346;2023-08-07T03:06:03;16.00;61.70
1614;DHT22;800;48.824;9.346;2023-08-07T03:08:28;15.90;62.20
1614;DHT22;800;48.824;9.346;2023-08-07T03:10:56;15.90;62.30
1614;DHT22;800;48.824;9.346;2023-08-07T03:13:23;16.10;61.40
1614;DHT22;800;48.824;9.346;2023-08-07T03:15:49;16.10;60.90
1614;DHT22;800;48.824;9.346;2023-08-07T03:18:18;16.20;60.90
1614;DHT22;800;48.824;9.346;2023-08-07T03:20:44;16.40;60.70
1614;DHT22;800;48.824;9.346;2023-08-07T03:23:10;16.30;59.90
1614;DHT22;800;48.824;9.346;2023-08-07T03:25:36;16.20;60.00
1614;DHT22;800;48.824;9.346;2023-08-07T03:28:02;16.20;60.70
1614;DHT22;800;48.824;9.346;2023-08-07T03:30:28;16.00;61.10
1614;DHT22;800;48.824;9.346;2023-08-07T03:32:53;16.00;61.50
1614;DHT22;800;48.824;9.346;2023-08-07T03:35:19;15.80;61.20
1614;DHT22;800;48.824;9.346;2023-08-07T03:37:45;15.80;61.20
1614;DHT22;800;48.824;9.346;2023-08-07T03:40:11;15.80;61.80
1614;DHT22;800;48.824;9.346;2023-08-07T03:42:36;16.00;61.60
1614;DHT22;800;48.824;9.346;2023-08-07T03:45:02;15.90;61.10
1614;DHT22;800;48.824;9.346;2023-08-07T03:47:28;15.90;61.20
1614;DHT22;800;48.824;9.346;2023-08-07T03:49:53;15.80;61.10
1614;DHT22;800;48.824;9.346;2023-08-07T03:52:19;16.00;61.30
1614;DHT22;800;48.824;9.346;2023-08-07T03:54:45;16.00;61.10
1614;DHT22;800;48.824;9.346;2023-08-07T03:57:10;16.00;62.00
1614;DHT22;800;48.824;9.346;2023-08-07T03:59:36;16.00;60.60
1614;DHT22;800;48.824;9.346;2023-08-07T04:02:02;16.00;60.60
1614;DHT22;800;48.824;9.346;2023-08-07T04:04:28;16.10;60.80
1614;DHT22;800;48.824;9.346;2023-08-07T04:06:53;16.30;60.60
1614;DHT22;800;48.824;9.346;2023-08-07T04:09:19;16.40;60.20
1614;DHT22;800;48.824;9.346;2023-08-07T04:11:44;16.50;59.80
1614;DHT22;800;48.824;9.346;2023-08-07T04:14:10;16.40;59.60
1614;DHT22;800;48.824;9.346;2023-08-07T04:16:36;16.40;60.00
1614;DHT22;800;48.824;9.346;2023-08-07T04:19:02;16.50;60.00
1614;DHT22;800;48.824;9.346;2023-08-07T04:21:29;16.40;59.80
1614;DHT22;800;48.824;9.346;2023-08-07T04:23:55;16.20;60.10
1614;DHT22;800;48.824;9.346;2023-08-07T04:26:20;16.00;60.30
1614;DHT22;800;48.824;9.346;2023-08-07T04:28:46;16.30;60.30
1614;DHT22;800;48.824;9.346;2023-08-07T04:31:11;16.20;61.20
1614;DHT22;800;48.824;9.346;2023-08-07T04:33:38;16.30;60.00
1614;DHT22;800;48.824;9.346;2023-08-07T04:36:04;16.10;60.00
1614;DHT22;800;48.824;9.346;2023-08-07T04:38:29;16.20;60.20
1614;DHT22;800;48.824;9.346;2023-08-07T04:40:55;16.20;60.00
1614;DHT22;800;48.824;9.346;2023-08-07T04:43:20;16.20;60.50
1614;DHT22;800;48.824;9.346;2023-08-07T04:45:46;16.10;60.40
1614;DHT22;800;48.824;9.346;2023-08-07T04:48:12;16.10;60.70
1614;DHT22;800;48.824;9.346;2023-08-07T04:50:38;16.20;60.70
1614;DHT22;800;48.824;9.346;2023-08-07T04:53:07;16.20;60.20
1614;DHT22;800;48.824;9.346;2023-08-07T04:55:32;16.30;60.30
1614;DHT22;800;48.824;9.346;2023-08-07T04:57:58;16.40;60.20
1614;DHT22;800;48.824;9.346;2023-08-07T05:00:24;16.50;59.70
1614;DHT22;800;48.824;9.346;2023-08-07T05:02:50;16.40;59.60
1614;DHT22;800;48.824;9.346;2023-08-07T05:05:17;16.60;59.90
1614;DHT22;800;48.824;9.346;2023-08-07T05:07:46;16.60;59.50
1614;DHT22;800;48.824;9.346;2023-08-07T05:10:12;16.70;59.50
1614;DHT22;800;48.824;9.346;2023-08-07T05:12:37;17.00;59.10
1614;DHT22;800;48.824;9.346;2023-08-07T05:15:03;16.80;58.90
1614;DHT22;800;48.824;9.346;2023-08-07T05:17:28;16.80;59.40
1614;DHT22;800;48.824;9.346;2023-08-07T05:19:54;16.80;59.20
1614;DHT22;800;48.824;9.346;2023-08-07T05:22:20;16.70;60.10
1614;DHT22;800;48.824;9.346;2023-08-07T05:24:45;16.70;60.30
1614;DHT22;800;48.824;9.346;2023-08-07T05:27:11;16.80;60.20
1614;DHT22;800;48.824;9.346;2023-08-07T05:29:37;16.90;60.20
1614;DHT22;800;48.824;9.346;2023-08-07T05:32:09;17.00;59.90
1614;DHT22;800;48.824;9.346;2023-08-07T05:34:35;17.10;59.60
1614;DHT22;800;48.824;9.346;2023-08-07T05:37:01;17.10;59.70
1614;DHT22;800;48.824;9.346;2023-08-07T05:39:27;17.20;59.40
1614;DHT22;800;48.824;9.346;2023-08-07T05:41:52;17.10;59.40
1614;DHT22;800;48.824;9.346;2023-08-07T05:44:20;17.10;59.50
1614;DHT22;800;48.824;9.346;2023-08-07T05:46:45;17.10;60.20
1614;DHT22;800;48.824;9.346;2023-08-07T05:49:11;17.20;59.80
1614;DHT22;800;48.824;9.346;2023-08-07T05:51:36;17.30;59.60
1614;DHT22;800;48.824;9.346;2023-08-07T05:54:02;17.60;59.10
1614;DHT22;800;48.824;9.346;2023-08-07T05:56:27;17.70;58.50
1614;DHT22;800;48.824;9.346;2023-08-07T05:58:53;17.60;58.20
1614;DHT22;800;48.824;9.346;2023-08-07T06:01:19;17.40;58.10
1614;DHT22;800;48.824;9.346;2023-08-07T06:03:44;17.30;58.40
1614;DHT22;800;48.824;9.346;2023-08-07T06:06:10;17.20;58.80
1614;DHT22;800;48.824;9.346;2023-08-07T06:08:35;17.20;58.60
1614;DHT22;800;48.824;9.346;2023-08-07T06:11:01;17.10;58.70
1614;DHT22;800;48.824;9.346;2023-08-07T06:13:30;17.20;58.50
1614;DHT22;800;48.824;9.346;2023-08-07T06:15:56;17.20;58.30
1614;DHT22;800;48.824;9.346;2023-08-07T06:18:22;17.20;58.30
1614;DHT22;800;48.824;9.346;2023-08-07T06:20:47;17.30;58.30
1614;DHT22;800;48.824;9.346;2023-08-07T06:23:13;17.20;59.00
1614;DHT22;800;48.824;9.346;2023-08-07T06:25:38;17.40;58.70
1614;DHT22;800;48.824;9.346;2023-08-07T06:28:04;17.10;58.40
1614;DHT22;800;48.824;9.346;2023-08-07T06:30:32;17.40;58.70
1614;DHT22;800;48.824;9.346;2023-08-07T06:32:58;17.20;58.40
1614;DHT22;800;48.824;9.346;2023-08-07T06:35:23;17.40;58.80
1614;DHT22;800;48.824;9.346;2023-08-07T06:37:49;17.50;58.80
1614;DHT22;800;48.824;9.346;2023-08-07T06:40:14;17.70;58.40
1614;DHT22;800;48.824;9.346;2023-08-07T06:42:40;17.90;58.30
1614;DHT22;800;48.824;9.346;2023-08-07T06:45:06;18.00;57.90
1614;DHT22;800;48.824;9.346;2023-08-07T06:47:32;18.10;57.90
1614;DHT22;800;48.824;9.346;2023-08-07T06:49:57;18.30;57.70
1614;DHT22;800;48.824;9.346;2023-08-07T06:52:23;18.10;57.10
1614;DHT22;800;48.824;9.346;2023-08-07T06:54:48;18.00;57.60
1614;DHT22;800;48.824;9.346;2023-08-07T06:57:15;18.20;57.70
1614;DHT22;800;48.824;9.346;2023-08-07T06:59:40;18.60;57.20
1614;DHT22;800;48.824;9.346;2023-08-07T07:02:06;18.70;56.40
1614;DHT22;800;48.824;9.346;2023-08-07T07:04:32;18.70;55.60
1614;DHT22;800;48.824;9.346;2023-08-07T07:06:58;18.30;55.30
1614;DHT22;800;48.824;9.346;2023-08-07T07:09:24;18.10;56.00
1614;DHT22;800;48.824;9.346;2023-08-07T07:11:50;18.00;55.60
1614;DHT22;800;48.824;9.346;2023-08-07T07:14:15;18.10;55.70
1614;DHT22;800;48.824;9.346;2023-08-07T07:16:41;18.20;55.70
1614;DHT22;800;48.824;9.346;2023-08-07T07:19:07;18.10;55.50
1614;DHT22;800;48.824;9.346;2023-08-07T07:21:34;18.20;55.00
1614;DHT22;800;48.824;9.346;2023-08-07T07:24:01;18.30;54.40
1614;DHT22;800;48.824;9.346;2023-08-07T07:26:27;18.50;55.00
1614;DHT22;800;48.824;9.346;2023-08-07T07:28:52;18.50;54.00
1614;DHT22;800;48.824;9.346;2023-08-07T07:31:18;18.50;54.60
1614;DHT22;800;48.824;9.346;2023-08-07T07:33:44;18.30;53.00
1614;DHT22;800;48.824;9.346;2023-08-07T07:36:16;18.20;52.90
1614;DHT22;800;48.824;9.346;2023-08-07T07:38:42;18.30;53.00
1614;DHT22;800;48.824;9.346;2023-08-07T07:41:08;18.10;53.10
1614;DHT22;800;48.824;9.346;2023-08-07T07:43:36;17.90;54.30
1614;DHT22;800;48.824;9.346;2023-08-07T07:46:02;18.00;54.50
1614;DHT22;800;48.824;9.346;2023-08-07T07:48:28;17.80;54.40
1614;DHT22;800;48.824;9.346;2023-08-07T07:51:03;17.80;54.90
1614;DHT22;800;48.824;9.346;2023-08-07T07:53:29;17.70;55.10
1614;DHT22;800;48.824;9.346;2023-08-07T07:55:56;17.80;55.60
1614;DHT22;800;48.824;9.346;2023-08-07T07:58:21;17.80;55.50
1614;DHT22;800;48.824;9.346;2023-08-07T08:00:47;17.80;55.90
1614;DHT22;800;48.824;9.346;2023-08-07T08:03:13;17.80;55.90
1614;DHT22;800;48.824;9.346;2023-08-07T08:05:39;17.80;56.10
1614;DHT22;800;48.824;9.346;2023-08-07T08:08:06;18.10;56.40
1614;DHT22;800;48.824;9.346;2023-08-07T08:10:32;18.30;55.90
1614;DHT22;800;48.824;9.346;2023-08-07T08:12:59;18.30;55.80
1614;DHT22;800;48.824;9.346;2023-08-07T08:15:25;18.50;55.30
1614;DHT22;800;48.824;9.346;2023-08-07T08:17:50;18.50;54.60
1614;DHT22;800;48.824;9.346;2023-08-07T08:20:16;18.40;53.60
1614;DHT22;800;48.824;9.346;2023-08-07T08:22:46;18.50;53.90
1614;DHT22;800;48.824;9.346;2023-08-07T08:25:12;18.40;52.80
1614;DHT22;800;48.824;9.346;2023-08-07T08:27:39;18.30;52.60
1614;DHT22;800;48.824;9.346;2023-08-07T08:30:05;18.40;52.60
1614;DHT22;800;48.824;9.346;2023-08-07T08:32:31;18.20;53.00
1614;DHT22;800;48.824;9.346;2023-08-07T08:34:57;18.10;53.10
1614;DHT22;800;48.824;9.346;2023-08-07T08:37:22;18.00;53.20
1614;DHT22;800;48.824;9.346;2023-08-07T08:39:48;18.00;53.60
1614;DHT22;800;48.824;9.346;2023-08-07T08:42:15;18.20;54.10
1614;DHT22;800;48.824;9.346;2023-08-07T08:44:52;18.40;53.50
1614;DHT22;800;48.824;9.346;2023-08-07T08:47:18;18.50;53.30
1614;DHT22;800;48.824;9.346;2023-08-07T08:50:02;18.50;53.40
1614;DHT22;800;48.824;9.346;2023-08-07T08:52:31;18.60;53.30
1614;DHT22;800;48.824;9.346;2023-08-07T08:54:57;18.80;52.50
1614;DHT22;800;48.824;9.346;2023-08-07T08:57:25;18.90;52.50
1614;DHT22;800;48.824;9.346;2023-08-07T08:59:51;18.80;51.70
1614;DHT22;800;48.824;9.346;2023-08-07T09:02:17;18.80;52.00
1614;DHT22;800;48.824;9.346;2023-08-07T09:04:44;18.80;51.30
1614;DHT22;800;48.824;9.346;2023-08-07T09:07:11;19.00;52.20
1614;DHT22;800;48.824;9.346;2023-08-07T09:09:37;19.00;50.90
1614;DHT22;800;48.824;9.346;2023-08-07T09:12:05;19.10;50.50
1614;DHT22;800;48.824;9.346;2023-08-07T09:14:32;18.80;49.90
1614;DHT22;800;48.824;9.346;2023-08-07T09:17:01;19.10;49.90
1614;DHT22;800;48.824;9.346;2023-08-07T09:19:26;19.10;49.70
1614;DHT22;800;48.824;9.346;2023-08-07T09:21:52;19.30;50.10
1614;DHT22;800;48.824;9.346;2023-08-07T09:24:18;19.40;49.70
1614;DHT22;800;48.824;9.346;2023-08-07T09:26:47;19.50;49.80
1614;DHT22;800;48.824;9.346;2023-08-07T09:29:13;19.30;49.60
1614;DHT22;800;48.824;9.346;2023-08-07T09:31:42;19.20;49.60
1614;DHT22;800;48.824;9.346;2023-08-07T09:34:08;19.30;50.10
1614;DHT22;800;48.824;9.346;2023-08-07T09:36:34;19.40;50.00
1614;DHT22;800;48.824;9.346;2023-08-07T09:39:03;19.40;50.10
1614;DHT22;800;48.824;9.346;2023-08-07T09:41:32;19.70;50.00
1614;DHT22;800;48.824;9.346;2023-08-07T09:43:58;19.90;49.50
1614;DHT22;800;48.824;9.346;2023-08-07T09:46:25;19.80;49.30
1614;DHT22;800;48.824;9.346;2023-08-07T09:48:51;19.90;49.00
1614;DHT22;800;48.824;9.346;2023-08-07T09:51:16;20.10;49.30
1614;DHT22;800;48.824;9.346;2023-08-07T09:53:42;20.10;48.70
1614;DHT22;800;48.824;9.346;2023-08-07T09:56:08;20.00;47.90
1614;DHT22;800;48.824;9.346;2023-08-07T09:58:34;20.20;49.30
1614;DHT22;800;48.824;9.346;2023-08-07T10:01:04;20.30;49.00
1614;DHT22;800;48.824;9.346;2023-08-07T10:03:29;20.30;48.60
1614;DHT22;800;48.824;9.346;2023-08-07T10:05:56;20.20;48.80
1614;DHT22;800;48.824;9.346;2023-08-07T10:08:22;20.30;49.80
1614;DHT22;800;48.824;9.346;2023-08-07T10:10:48;20.50;47.40
1614;DHT22;800;48.824;9.346;2023-08-07T10:13:14;20.50;47.80
1614;DHT22;800;48.824;9.346;2023-08-07T10:15:40;20.50;47.40
1614;DHT22;800;48.824;9.346;2023-08-07T10:18:08;20.50;47.50
1614;DHT22;800;48.824;9.346;2023-08-07T10:20:33;20.70;47.50
1614;DHT22;800;48.824;9.346;2023-08-07T10:23:09;20.60;47.50
1614;DHT22;800;48.824;9.346;2023-08-07T10:25:39;21.10;48.50
1614;DHT22;800;48.824;9.346;2023-08-07T10:28:10;21.60;48.00
1614;DHT22;800;48.824;9.346;2023-08-07T10:30:38;21.90;46.80
1614;DHT22;800;48.824;9.346;2023-08-07T10:33:06;21.60;44.60
1614;DHT22;800;48.824;9.346;2023-08-07T10:35:33;21.30;44.90
1614;DHT22;800;48.824;9.346;2023-08-07T10:38:07;21.20;44.10
1614;DHT22;800;48.824;9.346;2023-08-07T10:43:42;21.20;45.70
1614;DHT22;800;48.824;9.346;2023-08-07T10:46:21;21.10;45.80
1614;DHT22;800;48.824;9.346;2023-08-07T10:48:48;21.40;46.00
1614;DHT22;800;48.824;9.346;2023-08-07T10:51:19;21.20;45.60
1614;DHT22;800;48.824;9.346;2023-08-07T10:53:47;21.30;45.60
1614;DHT22;800;48.824;9.346;2023-08-07T10:56:17;21.50;45.70
1614;DHT22;800;48.824;9.346;2023-08-07T10:58:49;21.40;44.90
1614;DHT22;800;48.824;9.346;2023-08-07T11:04:05;21.40;46.30
1614;DHT22;800;48.824;9.346;2023-08-07T11:06:32;21.40;45.30
1614;DHT22;800;48.824;9.346;2023-08-07T11:09:03;21.30;46.00
1614;DHT22;800;48.824;9.346;2023-08-07T11:11:46;21.40;46.20
1614;DHT22;800;48.824;9.346;2023-08-07T11:14:14;21.50;46.00
1614;DHT22;800;48.824;9.346;2023-08-07T11:16:41;21.20;45.80
1614;DHT22;800;48.824;9.346;2023-08-07T11:19:08;21.10;45.40
1614;DHT22;800;48.824;9.346;2023-08-07T11:21:34;21.00;45.20
1614;DHT22;800;48.824;9.346;2023-08-07T11:24:00;21.20;45.30
1614;DHT22;800;48.824;9.346;2023-08-07T11:26:26;21.20;45.00
1614;DHT22;800;48.824;9.346;2023-08-07T11:28:53;21.10;44.70
1614;DHT22;800;48.824;9.346;2023-08-07T11:31:19;21.20;45.30
1614;DHT22;800;48.824;9.346;2023-08-07T11:33:45;21.30;45.40
1614;DHT22;800;48.824;9.346;2023-08-07T11:36:12;21.50;45.60
1614;DHT22;800;48.824;9.346;2023-08-07T11:38:40;21.20;44.70
1614;DHT22;800;48.824;9.346;2023-08-07T11:41:08;20.80;45.50
1614;DHT22;800;48.824;9.346;2023-08-07T11:43:35;20.90;46.10
1614;DHT22;800;48.824;9.346;2023-08-07T11:46:02;21.00;46.50
1614;DHT22;800;48.824;9.346;2023-08-07T11:48:29;21.10;46.00
1614;DHT22;800;48.824;9.346;2023-08-07T11:50:56;21.30;46.30
1614;DHT22;800;48.824;9.346;2023-08-07T11:53:24;21.40;46.10
1614;DHT22;800;48.824;9.346;2023-08-07T11:56:00;21.50;45.60
1614;DHT22;800;48.824;9.346;2023-08-07T11:58:33;21.20;45.70
1614;DHT22;800;48.824;9.346;2023-08-07T12:00:58;21.00;46.30
1614;DHT22;800;48.824;9.346;2023-08-07T12:03:29;21.20;47.00
1614;DHT22;800;48.824;9.346;2023-08-07T12:05:57;21.20;46.50
1614;DHT22;800;48.824;9.346;2023-08-07T12:08:22;20.70;46.70
1614;DHT22;800;48.824;9.346;2023-08-07T12:10:54;20.50;48.10
1614;DHT22;800;48.824;9.346;2023-08-07T12:13:26;20.40;48.10
1614;DHT22;800;48.824;9.346;2023-08-07T12:15:56;20.40;48.70
1614;DHT22;800;48.824;9.346;2023-08-07T12:18:23;20.50;49.10
1614;DHT22;800;48.824;9.346;2023-08-07T12:20:50;20.50;48.20
1614;DHT22;800;48.824;9.346;2023-08-07T12:23:17;20.60;49.90
1614;DHT22;800;48.824;9.346;2023-08-07T12:25:44;20.60;50.80
1614;DHT22;800;48.824;9.346;2023-08-07T12:28:10;20.80;51.40
1614;DHT22;800;48.824;9.346;2023-08-07T12:30:40;20.80;50.60
1614;DHT22;800;48.824;9.346;2023-08-07T12:33:06;20.90;50.10
1614;DHT22;800;48.824;9.346;2023-08-07T12:35:34;21.00;49.30
1614;DHT22;800;48.824;9.346;2023-08-07T12:38:00;20.90;48.80
1614;DHT22;800;48.824;9.346;2023-08-07T12:40:27;20.90;48.90
1614;DHT22;800;48.824;9.346;2023-08-07T12:42:53;20.70;49.40
1614;DHT22;800;48.824;9.346;2023-08-07T12:45:18;20.60;49.50
1614;DHT22;800;48.824;9.346;2023-08-07T12:47:47;20.70;49.70
1614;DHT22;800;48.824;9.346;2023-08-07T12:50:13;20.70;50.00
1614;DHT22;800;48.824;9.346;2023-08-07T12:52:39;20.70;50.20
1614;DHT22;800;48.824;9.346;2023-08-07T12:55:04;20.80;50.80
1614;DHT22;800;48.824;9.346;2023-08-07T12:57:31;20.90;49.50
1614;DHT22;800;48.824;9.346;2023-08-07T12:59:57;21.00;50.00
1614;DHT22;800;48.824;9.346;2023-08-07T13:02:22;20.80;48.80
1614;DHT22;800;48.824;9.346;2023-08-07T13:04:48;20.70;49.50
1614;DHT22;800;48.824;9.346;2023-08-07T13:07:14;20.90;48.90
1614;DHT22;800;48.824;9.346;2023-08-07T13:09:40;21.30;48.70
1614;DHT22;800;48.824;9.346;2023-08-07T13:12:05;21.20;48.80
1614;DHT22;800;48.824;9.346;2023-08-07T13:14:31;21.20;48.60
1614;DHT22;800;48.824;9.346;2023-08-07T13:16:57;21.30;49.40
1614;DHT22;800;48.824;9.346;2023-08-07T13:19:22;21.50;49.20
1614;DHT22;800;48.824;9.346;2023-08-07T13:21:48;21.50;48.90
1614;DHT22;800;48.824;9.346;2023-08-07T13:24:14;21.40;49.00
1614;DHT22;800;48.824;9.346;2023-08-07T13:26:39;21.50;49.60
1614;DHT22;800;48.824;9.346;2023-08-07T13:29:11;21.50;49.60
1614;DHT22;800;48.824;9.346;2023-08-07T13:31:36;21.60;50.00
1614;DHT22;800;48.824;9.346;2023-08-07T13:34:02;21.60;49.90
1614;DHT22;800;48.824;9.346;2023-08-07T13:36:33;21.80;49.90
1614;DHT22;800;48.824;9.346;2023-08-07T13:38:59;21.90;50.00
1614;DHT22;800;48.824;9.346;2023-08-07T13:41:26;21.90;49.00
1614;DHT22;800;48.824;9.346;2023-08-07T13:43:51;22.00;48.60
1614;DHT22;800;48.824;9.346;2023-08-07T13:46:17;22.00;48.40
1614;DHT22;800;48.824;9.346;2023-08-07T13:48:44;22.20;48.40
1614;DHT22;800;48.824;9.346;2023-08-07T13:51:10;22.40;48.40
1614;DHT22;800;48.824;9.346;2023-08-07T13:53:36;22.40;48.00
1614;DHT22;800;48.824;9.346;2023-08-07T13:56:01;22.30;47.20
1614;DHT22;800;48.824;9.346;2023-08-07T13:58:27;22.30;47.40
1614;DHT22;800;48.824;9.346;2023-08-07T14:00:53;22.20;46.80
1614;DHT22;800;48.824;9.346;2023-08-07T14:03:19;22.20;46.60
1614;DHT22;800;48.824;9.346;2023-08-07T14:05:46;22.00;46.80
1614;DHT22;800;48.824;9.346;2023-08-07T14:08:11;22.30;47.30
1614;DHT22;800;48.824;9.346;2023-08-07T14:10:37;22.40;47.00
1614;DHT22;800;48.824;9.346;2023-08-07T14:13:04;22.50;46.80
1614;DHT22;800;48.824;9.346;2023-08-07T14:15:31;22.60;46.70
1614;DHT22;800;48.824;9.346;2023-08-07T14:17:56;22.30;45.90
1614;DHT22;800;48.824;9.346;2023-08-07T14:20:22;22.30;46.40
1614;DHT22;800;48.824;9.346;2023-08-07T14:22:49;22.40;46.40
1614;DHT22;800;48.824;9.346;2023-08-07T14:25:15;22.30;46.30
1614;DHT22;800;48.824;9.346;2023-08-07T14:27:40;22.10;45.70
1614;DHT22;800;48.824;9.346;2023-08-07T14:30:06;22.40;46.10
1614;DHT22;800;48.824;9.346;2023-08-07T14:32:32;22.40;46.30
1614;DHT22;800;48.824;9.346;2023-08-07T14:34:58;22.70;46.60
1614;DHT22;800;48.824;9.346;2023-08-07T14:37:23;22.80;44.10
1614;DHT22;800;48.824;9.346;2023-08-07T14:39:49;22.50;43.70
1614;DHT22;800;48.824;9.346;2023-08-07T14:42:15;22.30;44.20
1614;DHT22;800;48.824;9.346;2023-08-07T14:44:41;22.20;44.10
1614;DHT22;800;48.824;9.346;2023-08-07T14:47:06;22.20;44.60
1614;DHT22;800;48.824;9.346;2023-08-07T14:49:32;22.40;44.60
1614;DHT22;800;48.824;9.346;2023-08-07T14:51:58;22.40;45.30
1614;DHT22;800;48.824;9.346;2023-08-07T14:54:23;22.40;46.20
1614;DHT22;800;48.824;9.346;2023-08-07T14:56:49;22.60;45.50
1614;DHT22;800;48.824;9.346;2023-08-07T14:59:15;22.60;45.00
1614;DHT22;800;48.824;9.346;2023-08-07T15:01:41;22.40;45.50
1614;DHT22;800;48.824;9.346;2023-08-07T15:04:06;22.40;45.20
1614;DHT22;800;48.824;9.346;2023-08-07T15:06:32;22.50;44.70
1614;DHT22;800;48.824;9.346;2023-08-07T15:08:58;22.80;44.70
1614;DHT22;800;48.824;9.346;2023-08-07T15:11:24;23.00;44.40
1614;DHT22;800;48.824;9.346;2023-08-07T15:13:49;22.70;43.60
1614;DHT22;800;48.824;9.346;2023-08-07T15:16:15;22.60;43.00
1614;DHT22;800;48.824;9.346;2023-08-07T15:18:41;22.70;43.80
1614;DHT22;800;48.824;9.346;2023-08-07T15:21:06;22.60;44.10
1614;DHT22;800;48.824;9.346;2023-08-07T15:23:32;22.50;44.50
1614;DHT22;800;48.824;9.346;2023-08-07T15:25:58;22.30;44.60
1614;DHT22;800;48.824;9.346;2023-08-07T15:28:24;22.20;45.40
1614;DHT22;800;48.824;9.346;2023-08-07T15:30:50;22.10;45.50
1614;DHT22;800;48.824;9.346;2023-08-07T15:33:17;21.70;45.80
1614;DHT22;800;48.824;9.346;2023-08-07T15:35:43;21.70;46.10
1614;DHT22;800;48.824;9.346;2023-08-07T15:38:09;21.60;46.20
1614;DHT22;800;48.824;9.346;2023-08-07T15:40:39;21.90;46.30
1614;DHT22;800;48.824;9.346;2023-08-07T15:43:06;21.80;45.80
1614;DHT22;800;48.824;9.346;2023-08-07T15:45:32;21.90;45.80
1614;DHT22;800;48.824;9.346;2023-08-07T15:47:57;22.00;45.80
1614;DHT22;800;48.824;9.346;2023-08-07T15:50:23;22.20;45.80
1614;DHT22;800;48.824;9.346;2023-08-07T15:52:49;22.50;45.60
1614;DHT22;800;48.824;9.346;2023-08-07T15:55:14;22.60;45.30
1614;DHT22;800;48.824;9.346;2023-08-07T15:57:40;22.80;44.40
1614;DHT22;800;48.824;9.346;2023-08-07T16:00:06;22.60;44.10
1614;DHT22;800;48.824;9.346;2023-08-07T16:02:32;22.50;44.30
1614;DHT22;800;48.824;9.346;2023-08-07T16:04:58;22.70;44.50
1614;DHT22;800;48.824;9.346;2023-08-07T16:07:24;22.80;44.20
1614;DHT22;800;48.824;9.346;2023-08-07T16:09:49;22.80;44.30
1614;DHT22;800;48.824;9.346;2023-08-07T16:12:15;23.00;44.70
1614;DHT22;800;48.824;9.346;2023-08-07T16:14:43;23.00;45.10
1614;DHT22;800;48.824;9.346;2023-08-07T16:17:09;22.70;44.40
1614;DHT22;800;48.824;9.346;2023-08-07T16:19:34;22.50;43.80
1614;DHT22;800;48.824;9.346;2023-08-07T16:22:00;22.10;44.20